createdAt,value
2018-11-12T00:00:30.957Z,101134.45
2018-11-12T00:03:00.039Z,101137.94
2018-11-12T00:05:29.205Z,101136.45
2018-11-12T00:07:58.151Z,101135.77
2018-11-12T00:10:26.955Z,101124.95
2018-11-12T00:12:56.380Z,101134.09
2018-11-12T00:15:25.362Z,101135.12
2018-11-12T00:17:54.103Z,101134.62
2018-11-12T00:20:23.026Z,101140.27
2018-11-12T00:22:52.169Z,101139.77
2018-11-12T00:25:20.992Z,101143.94
2018-11-12T00:27:49.800Z,101150.11
2018-11-12T00:30:19.646Z,101164.44
2018-11-12T00:32:49.125Z,101176.78
2018-11-12T00:35:17.977Z,101203.11
2018-11-12T00:37:46.851Z,101221.97
2018-11-12T00:40:17.453Z,101198.12
2018-11-12T00:42:46.857Z,101182.78
2018-11-12T00:45:16.176Z,101181.11
2018-11-12T00:47:45.102Z,101209.78
2018-11-12T00:50:15.286Z,101207.47
2018-11-12T00:52:44.400Z,101202.78
2018-11-12T00:55:14.596Z,101211.47
2018-11-12T00:57:43.750Z,101203.47
2018-11-12T01:00:17.635Z,101195.45
2018-11-12T01:02:47.715Z,101201.78
2018-11-12T01:05:17.478Z,101209.45
2018-11-12T01:07:47.390Z,101199.95
2018-11-12T01:10:17.592Z,101203.95
2018-11-12T01:12:46.958Z,101203.45
2018-11-12T01:15:17.685Z,101202.78
2018-11-12T01:17:47.126Z,101206.47
2018-11-12T01:20:16.939Z,101196.45
2018-11-12T01:22:45.764Z,101197.13
2018-11-12T01:25:15.019Z,101203.45
2018-11-12T01:27:44.760Z,101200.13
2018-11-12T01:30:14.824Z,101205.80
2018-11-12T01:32:44.194Z,101209.63
2018-11-12T01:35:13.978Z,101194.78
2018-11-12T01:37:42.841Z,101202.96
2018-11-12T01:40:12.541Z,101207.80
2018-11-12T01:42:41.658Z,101201.47
2018-11-12T01:45:12.861Z,101214.47
2018-11-12T01:47:41.995Z,101215.46
2018-11-12T01:50:12.057Z,101210.28
2018-11-12T01:52:41.725Z,101219.13
2018-11-12T01:55:12.030Z,101222.48
2018-11-12T01:57:41.196Z,101213.64
2018-11-12T02:00:14.887Z,101207.47
2018-11-12T02:02:45.266Z,101206.78
2018-11-12T02:05:14.094Z,101210.13
2018-11-12T02:07:43.046Z,101207.80
2018-11-12T02:10:13.621Z,101222.14
2018-11-12T02:12:42.722Z,101219.28
2018-11-12T02:15:13.903Z,101208.80
2018-11-12T02:17:43.983Z,101202.13
2018-11-12T02:20:15.111Z,101218.97
2018-11-12T02:22:45.137Z,101208.45
2018-11-12T02:25:14.875Z,101214.96
2018-11-12T02:27:43.749Z,101220.48
2018-11-12T02:30:48.280Z,101209.13
2018-11-12T02:33:18.124Z,101211.14
2018-11-12T02:35:46.706Z,101212.48
2018-11-12T02:38:15.526Z,101214.13
2018-11-12T02:40:44.696Z,101226.13
2018-11-12T02:43:13.882Z,101217.14
2018-11-12T02:45:42.720Z,101228.95
2018-11-12T02:48:11.470Z,101208.80
2018-11-12T02:50:40.385Z,101219.80
2018-11-12T02:53:09.300Z,101214.65
2018-11-12T02:55:38.167Z,101215.12
2018-11-12T02:58:06.961Z,101206.63
2018-11-12T03:00:35.759Z,101199.27
2018-11-12T03:03:04.620Z,101207.28
2018-11-12T03:05:33.910Z,101210.63
2018-11-12T03:08:02.728Z,101212.44
2018-11-12T03:10:31.581Z,101220.28
2018-11-12T03:13:00.688Z,101219.78
2018-11-12T03:15:29.497Z,101210.63
2018-11-12T03:17:58.344Z,101207.80
2018-11-12T03:20:27.191Z,101199.47
2018-11-12T03:22:56.037Z,101194.97
2018-11-12T03:25:24.849Z,101193.44
2018-11-12T03:27:54.132Z,101192.62
2018-11-12T03:30:23.610Z,101192.80
2018-11-12T03:32:53.246Z,101180.44
2018-11-12T03:35:22.165Z,101195.94
2018-11-12T03:37:51.835Z,101193.96
2018-11-12T03:40:22.971Z,101200.09
2018-11-12T03:42:52.320Z,101191.10
2018-11-12T03:45:23.345Z,101190.61
2018-11-12T03:47:52.215Z,101196.09
2018-11-12T03:50:22.487Z,101199.78
2018-11-12T03:52:51.291Z,101207.11
2018-11-12T03:55:21.797Z,101209.12
2018-11-12T03:57:50.738Z,101205.80
2018-11-12T04:00:25.613Z,101214.14
2018-11-12T04:02:54.428Z,101215.47
2018-11-12T04:05:23.249Z,101220.13
2018-11-12T04:07:52.117Z,101217.30
2018-11-12T04:10:21.682Z,101215.78
2018-11-12T04:12:50.873Z,101214.80
2018-11-12T04:15:22.063Z,101206.61
2018-11-12T04:17:57.214Z,101217.95
2018-11-12T04:20:26.505Z,101223.78
2018-11-12T04:23:01.832Z,101223.45
2018-11-12T04:25:30.940Z,101220.78
2018-11-12T04:27:59.814Z,101223.11
2018-11-12T04:30:29.204Z,101229.13
2018-11-12T04:32:58.412Z,101223.45
2018-11-12T04:35:27.366Z,101222.45
2018-11-12T04:37:56.310Z,101221.13
2018-11-12T04:40:25.114Z,101227.63
2018-11-12T04:42:54.275Z,101224.63
2018-11-12T04:45:24.364Z,101224.97
2018-11-12T04:47:54.213Z,101228.12
2018-11-12T04:50:25.093Z,101228.62
2018-11-12T04:52:54.512Z,101229.44
2018-11-12T04:55:24.211Z,101236.10
2018-11-12T04:57:53.105Z,101228.79
2018-11-12T05:00:26.558Z,101227.27
2018-11-12T05:02:55.476Z,101228.08
2018-11-12T05:05:25.631Z,101228.58
2018-11-12T05:07:54.475Z,101220.08
2018-11-12T05:10:24.335Z,101218.41
2018-11-12T05:12:53.628Z,101218.41
2018-11-12T05:15:23.328Z,101218.91
2018-11-12T05:17:52.431Z,101219.59
2018-11-12T05:20:23.909Z,101224.92
2018-11-12T05:22:53.160Z,101226.75
2018-11-12T05:25:22.271Z,101224.09
2018-11-12T05:27:51.103Z,101219.74
2018-11-12T05:30:21.219Z,101215.74
2018-11-12T05:32:50.340Z,101220.08
2018-11-12T05:35:20.639Z,101220.73
2018-11-12T05:37:49.658Z,101227.40
2018-11-12T05:40:21.603Z,101224.39
2018-11-12T05:42:50.738Z,101238.06
2018-11-12T05:45:20.835Z,101241.73
2018-11-12T05:47:49.656Z,101247.59
2018-11-12T05:50:23.794Z,101253.10
2018-11-12T05:52:53.956Z,101252.27
2018-11-12T05:55:24.446Z,101262.47
2018-11-12T05:57:53.249Z,101268.80
2018-11-12T06:00:38.430Z,101266.44
2018-11-12T06:03:07.393Z,101272.11
2018-11-12T06:05:36.533Z,101271.30
2018-11-12T06:08:06.011Z,101272.45
2018-11-12T06:10:35.640Z,101268.45
2018-11-12T06:13:04.463Z,101280.45
2018-11-12T06:15:33.330Z,101273.44
2018-11-12T06:18:02.457Z,101278.13
2018-11-12T06:20:33.284Z,101273.47
2018-11-12T06:23:02.177Z,101271.30
2018-11-12T06:25:32.500Z,101275.83
2018-11-12T06:28:01.341Z,101273.31
2018-11-12T06:30:32.028Z,101274.64
2018-11-12T06:33:00.908Z,101271.48
2018-11-12T06:35:29.708Z,101274.64
2018-11-12T06:37:59.109Z,101287.30
2018-11-12T06:40:28.621Z,101292.16
2018-11-12T06:42:57.619Z,101289.84
2018-11-12T06:45:27.781Z,101287.83
2018-11-12T06:47:57.329Z,101282.83
2018-11-12T06:50:31.675Z,101285.49
2018-11-12T06:53:01.154Z,101292.84
2018-11-12T06:55:29.909Z,101289.86
2018-11-12T06:57:58.750Z,101287.50
2018-11-12T07:00:30.937Z,101277.50
2018-11-12T07:02:59.836Z,101285.86
2018-11-12T07:05:29.233Z,101284.83
2018-11-12T07:07:58.027Z,101285.02
2018-11-12T07:10:28.240Z,101275.52
2018-11-12T07:12:57.895Z,101272.51
2018-11-12T07:15:27.938Z,101269.84
2018-11-12T07:17:57.058Z,101261.18
2018-11-12T07:20:27.009Z,101258.52
2018-11-12T07:22:56.161Z,101265.20
2018-11-12T07:25:26.641Z,101271.67
2018-11-12T07:27:55.525Z,101290.38
2018-11-12T07:30:25.622Z,101301.37
2018-11-12T07:32:55.944Z,101304.55
2018-11-12T07:35:25.627Z,101302.89
2018-11-12T07:37:55.296Z,101310.23
2018-11-12T07:40:24.680Z,101307.23
2018-11-12T07:42:53.408Z,101308.25
2018-11-12T07:45:23.834Z,101321.26
2018-11-12T07:47:53.732Z,101324.11
2018-11-12T07:50:23.758Z,101322.58
2018-11-12T07:52:52.616Z,101325.95
2018-11-12T07:55:22.741Z,101309.73
2018-11-12T07:57:52.697Z,101303.58
2018-11-12T08:00:26.777Z,101311.58
2018-11-12T08:03:00.823Z,101324.27
2018-11-12T08:05:30.094Z,101326.44
2018-11-12T08:07:58.875Z,101342.30
2018-11-12T08:10:27.942Z,101346.98
2018-11-12T08:12:56.763Z,101350.33
2018-11-12T08:15:25.592Z,101356.65
2018-11-12T08:17:54.372Z,101341.45
2018-11-12T08:20:24.295Z,101333.61
2018-11-12T08:22:53.573Z,101322.27
2018-11-12T08:25:22.410Z,101328.10
2018-11-12T08:27:51.326Z,101322.92
2018-11-12T08:30:23.476Z,101311.92
2018-11-12T08:32:55.594Z,101316.25
2018-11-12T08:35:24.439Z,101325.61
2018-11-12T08:37:53.724Z,101330.28
2018-11-12T08:40:24.026Z,101330.78
2018-11-12T08:42:52.909Z,101329.30
2018-11-12T08:45:22.137Z,101339.28
2018-11-12T08:47:52.335Z,101337.45
2018-11-12T08:50:22.452Z,101340.98
2018-11-12T08:52:51.978Z,101340.48
2018-11-12T08:55:22.195Z,101347.31
2018-11-12T08:57:56.209Z,101353.14
2018-11-12T09:00:26.062Z,101358.98
2018-11-12T09:02:55.574Z,101354.82
2018-11-12T09:05:25.615Z,101350.13
2018-11-12T09:07:56.219Z,101337.77
2018-11-12T09:10:26.971Z,101334.25
2018-11-12T09:12:56.135Z,101337.94
2018-11-12T09:15:25.031Z,101327.75
2018-11-12T09:17:53.908Z,101335.94
2018-11-12T09:20:24.394Z,101341.42
2018-11-12T09:22:53.573Z,101346.61
2018-11-12T09:25:24.333Z,101350.94
2018-11-12T09:27:53.244Z,101354.28
2018-11-12T09:30:23.275Z,101351.77
2018-11-12T09:32:52.236Z,101353.11
2018-11-12T09:35:22.722Z,101351.27
2018-11-12T09:37:52.775Z,101348.77
2018-11-12T09:40:23.892Z,101349.59
2018-11-12T09:42:52.850Z,101355.11
2018-11-12T09:45:21.977Z,101355.23
2018-11-12T09:47:50.906Z,101353.87
2018-11-12T09:50:21.027Z,101346.98
2018-11-12T09:52:52.225Z,101345.78
2018-11-12T09:55:22.306Z,101338.73
2018-11-12T09:57:53.638Z,101336.34
2018-11-12T10:00:22.730Z,101338.39
2018-11-12T10:02:52.718Z,101330.53
2018-11-12T10:05:22.294Z,101329.99
2018-11-12T10:07:57.325Z,101324.14
2018-11-12T10:10:47.625Z,101312.18
2018-11-12T10:13:19.512Z,101301.42
2018-11-12T10:15:49.466Z,101300.16
2018-11-12T10:18:14.732Z,101295.84
2018-11-12T10:20:43.518Z,101295.73
2018-11-12T10:23:12.286Z,101295.06
2018-11-12T10:25:41.174Z,101298.58
2018-11-12T10:28:10.100Z,101301.47
2018-11-12T10:30:39.048Z,101300.00
2018-11-12T10:33:08.184Z,101290.31
2018-11-12T10:35:37.024Z,101285.78
2018-11-12T10:38:06.838Z,101285.41
2018-11-12T10:40:35.824Z,101292.81
2018-11-12T10:43:04.786Z,101291.81
2018-11-12T10:45:34.734Z,101289.42
2018-11-12T10:48:03.802Z,101282.02
2018-11-12T10:50:32.621Z,101278.83
2018-11-12T10:53:01.513Z,101271.65
2018-11-12T10:55:30.815Z,101269.97
2018-11-12T10:57:59.553Z,101272.42
2018-11-12T11:00:37.306Z,101276.61
2018-11-12T11:03:14.672Z,101277.05
2018-11-12T11:05:44.684Z,101283.28
2018-11-12T11:08:13.677Z,101276.38
2018-11-12T11:10:42.558Z,101258.64
2018-11-12T11:13:11.446Z,101251.63
2018-11-12T11:15:40.705Z,101260.37
2018-11-12T11:18:09.755Z,101262.38
2018-11-12T11:20:38.580Z,101265.38
2018-11-12T11:23:07.418Z,101266.33
2018-11-12T11:25:36.405Z,101264.94
2018-11-12T11:28:05.389Z,101264.84
2018-11-12T11:30:34.259Z,101263.61
2018-11-12T11:33:03.098Z,101258.03
2018-11-12T11:35:31.895Z,101253.84
2018-11-12T11:38:01.031Z,101247.92
2018-11-12T11:40:29.872Z,101246.25
2018-11-12T11:42:58.719Z,101248.20
2018-11-12T11:45:27.727Z,101246.16
2018-11-12T11:47:56.846Z,101248.45
2018-11-12T11:50:26.918Z,101246.06
2018-11-12T11:52:55.608Z,101241.15
2018-11-12T11:55:25.117Z,101235.27
2018-11-12T11:57:54.992Z,101232.85
2018-11-12T12:00:25.371Z,101234.80
2018-11-12T12:02:55.176Z,101247.02
2018-11-12T12:05:24.829Z,101243.97
2018-11-12T12:07:54.599Z,101237.03
2018-11-12T12:10:23.944Z,101240.30
2018-11-12T12:12:53.898Z,101245.48
2018-11-12T12:15:23.816Z,101240.35
2018-11-12T12:17:52.774Z,101235.06
2018-11-12T12:20:23.065Z,101238.16
2018-11-12T12:22:52.102Z,101230.69
2018-11-12T12:25:21.482Z,101225.76
2018-11-12T12:27:51.140Z,101228.88
2018-11-12T12:30:22.267Z,101223.28
2018-11-12T12:32:51.955Z,101229.63
2018-11-12T12:35:20.824Z,101221.19
2018-11-12T12:37:49.973Z,101219.41
2018-11-12T12:40:20.167Z,101216.11
2018-11-12T12:42:49.324Z,101205.81
2018-11-12T12:45:19.777Z,101207.30
2018-11-12T12:47:49.121Z,101214.92
2018-11-12T12:50:18.703Z,101206.03
2018-11-12T12:52:47.606Z,101202.22
2018-11-12T12:55:17.571Z,101206.70
2018-11-12T12:57:47.149Z,101204.30
2018-11-12T13:00:18.175Z,101199.94
2018-11-12T13:02:47.028Z,101196.44
2018-11-12T13:05:16.228Z,101190.96
2018-11-12T13:07:45.255Z,101198.63
2018-11-12T13:10:15.569Z,101194.97
2018-11-12T13:12:44.839Z,101191.80
2018-11-12T13:15:15.319Z,101190.17
2018-11-12T13:17:44.972Z,101195.36
2018-11-12T13:20:15.018Z,101187.22
2018-11-12T13:22:44.698Z,101186.37
2018-11-12T13:25:13.759Z,101185.50
2018-11-12T13:27:43.199Z,101184.90
2018-11-12T13:30:14.358Z,101183.27
2018-11-12T13:32:43.811Z,101182.53
2018-11-12T13:35:15.796Z,101179.23
2018-11-12T13:37:44.648Z,101180.50
2018-11-12T13:40:21.688Z,101187.72
2018-11-12T13:42:52.290Z,101183.97
2018-11-12T13:45:21.554Z,101188.06
2018-11-12T13:47:50.564Z,101179.06
2018-11-12T13:50:21.850Z,101178.98
2018-11-12T13:52:51.251Z,101183.23
2018-11-12T13:55:21.161Z,101189.80
2018-11-12T13:57:49.998Z,101183.98
2018-11-12T14:00:21.770Z,101188.70
2018-11-12T14:02:51.286Z,101188.38
2018-11-12T14:05:21.581Z,101187.77
2018-11-12T14:07:50.455Z,101181.10
2018-11-12T14:10:21.805Z,101183.73
2018-11-12T14:12:51.879Z,101185.78
2018-11-12T14:15:22.773Z,101189.53
2018-11-12T14:17:52.236Z,101196.23
2018-11-12T14:20:21.675Z,101193.73
2018-11-12T14:22:50.774Z,101191.56
2018-11-12T14:25:20.546Z,101199.98
2018-11-12T14:27:51.149Z,101193.35
2018-11-12T14:30:22.676Z,101192.78
2018-11-12T14:32:51.572Z,101193.72
2018-11-12T14:35:20.723Z,101190.22
2018-11-12T14:37:49.781Z,101190.22
2018-11-12T14:40:19.394Z,101183.88
2018-11-12T14:42:48.569Z,101183.30
2018-11-12T14:45:19.858Z,101182.22
2018-11-12T14:47:48.906Z,101189.94
2018-11-12T14:50:17.724Z,101182.91
2018-11-12T14:52:48.280Z,101187.11
2018-11-12T14:55:18.231Z,101193.75
2018-11-12T14:57:47.304Z,101188.52
2018-11-12T15:00:19.364Z,101184.94
2018-11-12T15:02:48.539Z,101195.98
2018-11-12T15:05:18.815Z,101197.59
2018-11-12T15:07:47.635Z,101208.78
2018-11-12T15:10:16.510Z,101199.50
2018-11-12T15:12:45.933Z,101198.81
2018-11-12T15:15:15.038Z,101195.19
2018-11-12T15:17:44.195Z,101200.66
2018-11-12T15:20:15.807Z,101198.45
2018-11-12T15:22:45.009Z,101202.84
2018-11-12T15:25:16.139Z,101206.60
2018-11-12T15:27:45.632Z,101192.28
2018-11-12T15:30:16.411Z,101193.95
2018-11-12T15:32:46.080Z,101197.67
2018-11-12T15:35:15.124Z,101204.16
2018-11-12T15:37:44.800Z,101209.73
2018-11-12T15:40:14.318Z,101209.73
2018-11-12T15:42:43.329Z,101207.89
2018-11-12T15:45:14.669Z,101211.41
2018-11-12T15:47:44.270Z,101204.77
2018-11-12T15:50:22.620Z,101204.27
2018-11-12T15:52:51.583Z,101209.73
2018-11-12T15:55:20.659Z,101215.61
2018-11-12T15:57:49.555Z,101211.59
2018-11-12T16:00:18.503Z,101214.05
2018-11-12T16:02:47.669Z,101210.45
2018-11-12T16:05:16.590Z,101207.80
2018-11-12T16:07:45.500Z,101209.33
2018-11-12T16:10:16.638Z,101210.88
2018-11-12T16:12:45.521Z,101208.11
2018-11-12T16:15:15.528Z,101204.70
2018-11-12T16:17:44.735Z,101211.14
2018-11-12T16:20:17.805Z,101210.88
2018-11-12T16:22:47.768Z,101218.09
2018-11-12T16:25:17.217Z,101213.77
2018-11-12T16:27:46.069Z,101212.99
2018-11-12T16:30:15.162Z,101207.78
2018-11-12T16:32:44.738Z,101206.23
2018-11-12T16:35:15.281Z,101215.83
2018-11-12T16:37:45.069Z,101216.27
2018-11-12T16:40:14.037Z,101213.66
2018-11-12T16:42:44.050Z,101222.55
2018-11-12T16:45:14.349Z,101210.58
2018-11-12T16:47:43.530Z,101202.92
2018-11-12T16:50:13.484Z,101207.57
2018-11-12T16:52:42.660Z,101205.28
2018-11-12T16:55:18.929Z,101211.00
2018-11-12T16:57:47.961Z,101210.16
2018-11-12T17:00:18.339Z,101210.37
2018-11-12T17:02:47.488Z,101214.01
2018-11-12T17:05:18.817Z,101215.41
2018-11-12T17:07:47.689Z,101216.09
2018-11-12T17:10:17.856Z,101223.63
2018-11-12T17:12:48.129Z,101223.12
2018-11-12T17:15:17.313Z,101226.48
2018-11-12T17:17:46.489Z,101228.83
2018-11-12T17:20:17.422Z,101233.95
2018-11-12T17:22:46.315Z,101228.91
2018-11-12T17:25:16.444Z,101223.53
2018-11-12T17:27:45.748Z,101229.06
2018-11-12T17:30:17.168Z,101230.97
2018-11-12T17:32:46.301Z,101230.81
2018-11-12T17:35:16.420Z,101227.30
2018-11-12T17:37:45.242Z,101222.65
2018-11-12T17:40:16.915Z,101226.69
2018-11-12T17:42:46.781Z,101222.05
2018-11-12T17:45:17.460Z,101223.39
2018-11-12T17:47:47.514Z,101235.12
2018-11-12T17:50:16.441Z,101227.81
2018-11-12T17:52:45.543Z,101220.61
2018-11-12T17:55:14.521Z,101230.78
2018-11-12T17:57:43.453Z,101227.98
2018-11-12T18:00:19.991Z,101232.17
2018-11-12T18:02:49.128Z,101233.41
2018-11-12T18:05:18.290Z,101237.59
2018-11-12T18:07:47.422Z,101237.43
2018-11-12T18:10:16.882Z,101234.92
2018-11-12T18:12:45.924Z,101238.77
2018-11-12T18:15:18.411Z,101248.37
2018-11-12T18:17:47.260Z,101252.78
2018-11-12T18:20:18.039Z,101252.27
2018-11-12T18:22:47.047Z,101259.42
2018-11-12T18:25:16.420Z,101258.13
2018-11-12T18:27:45.801Z,101263.66
2018-11-12T18:30:20.203Z,101262.49
2018-11-12T18:32:50.072Z,101263.78
2018-11-12T18:35:19.377Z,101260.61
2018-11-12T18:37:48.683Z,101260.49
2018-11-12T18:40:19.128Z,101258.63
2018-11-12T18:42:48.751Z,101251.83
2018-11-12T18:45:19.146Z,101247.59
2018-11-12T18:47:48.827Z,101252.11
2018-11-12T18:50:19.971Z,101248.09
2018-11-12T18:52:48.913Z,101240.08
2018-11-12T18:55:17.943Z,101249.72
2018-11-12T18:57:47.492Z,101251.06
2018-11-12T19:00:18.030Z,101249.89
2018-11-12T19:02:47.134Z,101259.97
2018-11-12T19:05:18.341Z,101258.48
2018-11-12T19:07:48.554Z,101265.66
2018-11-12T19:10:18.896Z,101279.89
2018-11-12T19:12:48.405Z,101280.44
2018-11-12T19:15:19.818Z,101277.05
2018-11-12T19:17:51.279Z,101280.56
2018-11-12T19:20:20.248Z,101283.78
2018-11-12T19:22:49.145Z,101288.13
2018-11-12T19:25:18.199Z,101288.84
2018-11-12T19:27:47.200Z,101289.47
2018-11-12T19:30:18.850Z,101289.14
2018-11-12T19:32:47.808Z,101285.83
2018-11-12T19:35:18.185Z,101293.48
2018-11-12T19:37:47.305Z,101291.69
2018-11-12T19:40:17.657Z,101292.90
2018-11-12T19:42:47.646Z,101290.73
2018-11-12T19:45:17.380Z,101290.59
2018-11-12T19:47:47.426Z,101295.41
2018-11-12T19:50:17.744Z,101297.42
2018-11-12T19:52:47.930Z,101290.27
2018-11-12T19:55:17.613Z,101296.91
2018-11-12T19:57:47.604Z,101289.27
2018-11-12T20:00:19.628Z,101296.95
2018-11-12T20:02:50.004Z,101293.28
2018-11-12T20:05:19.138Z,101291.64
2018-11-12T20:07:48.264Z,101289.30
2018-11-12T20:10:19.519Z,101289.30
2018-11-12T20:12:48.407Z,101296.83
2018-11-12T20:15:19.045Z,101297.36
2018-11-12T20:17:48.867Z,101297.33
2018-11-12T20:20:33.556Z,101299.50
2018-11-12T20:23:02.631Z,101301.53
2018-11-12T20:25:31.581Z,101291.84
2018-11-12T20:28:00.471Z,101295.19
2018-11-12T20:30:33.175Z,101298.06
2018-11-12T20:33:02.031Z,101297.06
2018-11-12T20:35:30.983Z,101294.55
2018-11-12T20:37:59.945Z,101292.51
2018-11-12T20:40:28.943Z,101292.71
2018-11-12T20:42:57.865Z,101298.39
2018-11-12T20:45:27.176Z,101305.91
2018-11-12T20:47:57.034Z,101300.40
2018-11-12T20:50:25.905Z,101307.42
2018-11-12T20:52:54.966Z,101311.09
2018-11-12T20:55:24.039Z,101312.13
2018-11-12T20:57:53.276Z,101308.09
2018-11-12T21:00:24.364Z,101312.44
2018-11-12T21:02:54.687Z,101311.59
2018-11-12T21:05:25.156Z,101318.12
2018-11-12T21:07:54.058Z,101317.78
2018-11-12T21:10:23.646Z,101321.16
2018-11-12T21:12:52.983Z,101315.11
2018-11-12T21:15:23.688Z,101310.23
2018-11-12T21:17:52.669Z,101303.34
2018-11-12T21:20:23.849Z,101309.36
2018-11-12T21:22:52.941Z,101308.03
2018-11-12T21:25:23.403Z,101304.34
2018-11-12T21:27:52.417Z,101300.37
2018-11-12T21:30:24.453Z,101305.72
2018-11-12T21:32:53.367Z,101308.89
2018-11-12T21:35:22.420Z,101310.20
2018-11-12T21:37:52.378Z,101308.03
2018-11-12T21:40:23.065Z,101311.03
2018-11-12T21:42:52.418Z,101317.52
2018-11-12T21:45:26.534Z,101309.36
2018-11-12T21:47:55.545Z,101329.30
2018-11-12T21:50:24.580Z,101327.78
2018-11-12T21:52:53.854Z,101325.78
2018-11-12T21:55:23.224Z,101324.25
2018-11-12T21:57:52.433Z,101314.05
2018-11-12T22:00:22.806Z,101315.05
2018-11-12T22:02:57.082Z,101318.56
2018-11-12T22:05:26.869Z,101321.06
2018-11-12T22:07:55.842Z,101310.83
2018-11-12T22:10:24.893Z,101318.05
2018-11-12T22:12:54.961Z,101321.87
2018-11-12T22:15:23.946Z,101326.38
2018-11-12T22:17:53.278Z,101320.03
2018-11-12T22:20:23.722Z,101327.35
2018-11-12T22:22:52.530Z,101324.17
2018-11-12T22:25:22.306Z,101308.95
2018-11-12T22:27:52.527Z,101318.66
2018-11-12T22:30:22.749Z,101308.62
2018-11-12T22:32:52.577Z,101308.45
2018-11-12T22:35:21.756Z,101308.45
2018-11-12T22:37:50.772Z,101311.63
2018-11-12T22:40:20.329Z,101309.45
2018-11-12T22:42:50.234Z,101314.14
2018-11-12T22:45:20.633Z,101325.47
2018-11-12T22:47:49.979Z,101339.36
2018-11-12T22:50:18.907Z,101340.53
2018-11-12T22:52:47.864Z,101341.06
2018-11-12T22:55:17.782Z,101340.56
2018-11-12T22:57:46.866Z,101349.26
2018-11-12T23:00:23.894Z,101352.64
2018-11-12T23:02:53.051Z,101344.78
2018-11-12T23:05:22.462Z,101361.00
2018-11-12T23:07:51.907Z,101357.48
2018-11-12T23:10:22.221Z,101357.48
2018-11-12T23:12:51.050Z,101363.51
2018-11-12T23:15:20.523Z,101355.31
2018-11-12T23:17:49.389Z,101358.48
2018-11-12T23:20:19.676Z,101359.36
2018-11-12T23:22:49.230Z,101351.16
2018-11-12T23:25:18.309Z,101360.53
2018-11-12T23:27:47.606Z,101352.84
2018-11-12T23:30:17.491Z,101365.54
2018-11-12T23:32:46.325Z,101360.89
2018-11-12T23:35:16.302Z,101354.20
2018-11-12T23:37:45.704Z,101354.03
2018-11-12T23:40:14.951Z,101355.70
2018-11-12T23:42:44.308Z,101367.23
2018-11-12T23:45:13.558Z,101368.24
2018-11-12T23:47:42.400Z,101361.55
2018-11-12T23:50:15.973Z,101376.27
2018-11-12T23:52:45.573Z,101373.09
2018-11-12T23:55:14.788Z,101380.28
2018-11-12T23:57:43.937Z,101381.31
